createdAt,value
2023-01-05T00:02:24.034Z,10.90
2023-01-05T00:07:26.343Z,10.94
2023-01-05T00:12:46.656Z,11.00
2023-01-05T00:18:07.026Z,11.04
2023-01-05T00:23:09.650Z,11.06
2023-01-05T00:28:11.498Z,11.06
2023-01-05T00:33:15.960Z,11.06
2023-01-05T00:38:17.684Z,11.07
2023-01-05T00:43:19.540Z,11.09
2023-01-05T00:48:21.571Z,11.09
2023-01-05T00:53:23.374Z,11.08
2023-01-05T00:58:25.234Z,11.08
2023-01-05T01:03:27.619Z,11.06
2023-01-05T01:08:29.726Z,11.03
2023-01-05T01:13:32.042Z,11.00
2023-01-05T01:18:34.471Z,10.98
2023-01-05T01:23:40.040Z,10.98
2023-01-05T01:28:41.926Z,10.98
2023-01-05T01:33:43.694Z,11.01
2023-01-05T01:38:45.847Z,11.03
2023-01-05T01:43:51.347Z,11.07
2023-01-05T01:49:00.909Z,11.09
2023-01-05T01:54:07.375Z,11.06
2023-01-05T01:59:10.680Z,11.06
2023-01-05T02:04:13.604Z,11.09
2023-01-05T02:09:18.843Z,11.12
2023-01-05T02:14:29.592Z,11.15
2023-01-05T02:19:51.133Z,11.16
2023-01-05T02:25:25.290Z,11.16
2023-01-05T02:30:42.016Z,11.18
2023-01-05T02:36:13.594Z,11.20
2023-01-05T02:41:31.824Z,11.24
2023-01-05T02:46:34.925Z,11.23
2023-01-05T02:51:41.719Z,11.20
2023-01-05T02:57:07.973Z,11.19
2023-01-05T03:02:15.740Z,11.21
2023-01-05T03:07:25.429Z,11.22
2023-01-05T03:12:54.764Z,11.24
2023-01-05T03:18:06.439Z,11.25
2023-01-05T03:23:31.122Z,11.29
2023-01-05T03:28:59.950Z,11.31
2023-01-05T03:34:38.578Z,11.32
2023-01-05T03:39:45.188Z,11.34
2023-01-05T03:44:49.397Z,11.34
2023-01-05T03:49:53.383Z,11.36
2023-01-05T03:54:55.720Z,11.37
2023-01-05T03:59:58.215Z,11.38
2023-01-05T04:05:00.622Z,11.38
2023-01-05T04:10:03.347Z,11.39
2023-01-05T04:15:07.338Z,11.40
2023-01-05T04:20:10.144Z,11.39
2023-01-05T04:25:12.787Z,11.39
2023-01-05T04:30:18.133Z,11.36
2023-01-05T04:35:20.164Z,11.32
2023-01-05T04:40:23.880Z,11.28
2023-01-05T04:45:29.193Z,11.26
2023-01-05T04:50:31.692Z,11.21
2023-01-05T04:55:35.156Z,11.18
2023-01-05T05:00:38.128Z,11.13
2023-01-05T05:05:41.811Z,11.09
2023-01-05T05:10:44.761Z,11.03
2023-01-05T05:15:47.955Z,11.00
2023-01-05T05:20:52.346Z,11.01
2023-01-05T05:25:58.802Z,11.01
2023-01-05T05:31:01.208Z,11.01
2023-01-05T05:36:03.252Z,10.98
2023-01-05T05:41:05.249Z,10.88
2023-01-05T05:46:07.232Z,10.70
2023-01-05T05:51:09.188Z,10.54
2023-01-05T05:56:11.044Z,10.45
2023-01-05T06:01:12.966Z,10.40
2023-01-05T06:06:14.990Z,10.38
2023-01-05T06:11:17.055Z,10.40
2023-01-05T06:16:19.743Z,10.43
2023-01-05T06:21:22.220Z,10.46
2023-01-05T06:26:24.092Z,10.49
2023-01-05T06:31:26.026Z,10.52
2023-01-05T06:36:28.153Z,10.52
2023-01-05T06:41:30.923Z,10.53
2023-01-05T06:46:32.802Z,10.53
2023-01-05T06:51:34.679Z,10.52
2023-01-05T06:56:36.595Z,10.53
2023-01-05T07:01:39.173Z,10.53
2023-01-05T07:06:41.385Z,10.55
2023-01-05T07:11:43.187Z,10.57
2023-01-05T07:16:45.064Z,10.57
2023-01-05T07:21:50.538Z,10.59
2023-01-05T07:26:55.592Z,10.59
2023-01-05T07:31:57.567Z,10.59
2023-01-05T07:36:59.420Z,10.60
2023-01-05T07:42:01.387Z,10.60
2023-01-05T07:47:03.377Z,10.59
2023-01-05T07:52:05.271Z,10.58
2023-01-05T07:57:07.044Z,10.54
2023-01-05T08:02:10.847Z,10.51
2023-01-05T08:07:14.992Z,10.44
2023-01-05T08:12:16.791Z,10.38
2023-01-05T08:17:18.588Z,10.36
2023-01-05T08:22:20.502Z,10.35
2023-01-05T08:27:22.443Z,10.35
2023-01-05T08:32:24.261Z,10.26
2023-01-05T08:37:26.145Z,10.17
2023-01-05T08:42:27.972Z,10.17
2023-01-05T08:47:29.771Z,10.18
2023-01-05T08:52:31.549Z,10.22
2023-01-05T08:57:33.971Z,10.28
2023-01-05T09:02:36.229Z,10.26
2023-01-05T09:07:38.220Z,10.18
2023-01-05T09:12:40.227Z,10.12
2023-01-05T09:17:42.107Z,10.11
2023-01-05T09:22:45.132Z,10.11
2023-01-05T09:27:47.015Z,10.14
2023-01-05T09:32:48.837Z,10.16
2023-01-05T09:37:50.653Z,10.20
2023-01-05T09:42:53.188Z,10.25
2023-01-05T09:47:57.505Z,10.29
2023-01-05T09:53:00.536Z,10.33
2023-01-05T09:58:07.676Z,10.47
2023-01-05T10:03:37.099Z,10.61
2023-01-05T10:08:44.759Z,10.57
2023-01-05T10:14:03.386Z,10.59
2023-01-05T10:19:10.466Z,10.63
2023-01-05T10:24:29.351Z,10.63
2023-01-05T10:29:39.483Z,10.52
2023-01-05T10:34:56.862Z,10.51
2023-01-05T10:40:08.463Z,10.59
2023-01-05T10:45:13.433Z,10.74
2023-01-05T10:50:40.739Z,10.69
2023-01-05T10:55:57.676Z,10.57
2023-01-05T11:01:04.904Z,10.48
2023-01-05T11:06:09.290Z,10.43
2023-01-05T11:11:29.722Z,10.33
2023-01-05T11:16:35.455Z,10.28
2023-01-05T11:21:39.475Z,10.25
2023-01-05T11:26:59.888Z,10.25
2023-01-05T11:32:09.990Z,10.26
2023-01-05T11:37:11.815Z,10.29
2023-01-05T11:42:25.633Z,10.33
2023-01-05T11:47:28.260Z,10.38
2023-01-05T11:52:39.142Z,10.41
2023-01-05T11:57:40.918Z,10.50
2023-01-05T12:03:37.234Z,10.57
2023-01-05T12:08:55.475Z,10.58
2023-01-05T12:14:27.116Z,10.64
2023-01-05T12:19:28.857Z,10.67
2023-01-05T12:24:53.143Z,10.71
2023-01-05T12:35:25.568Z,10.74
2023-01-05T12:40:37.257Z,10.72
2023-01-05T12:45:59.034Z,10.65
2023-01-05T12:51:42.003Z,10.59
2023-01-05T12:57:04.379Z,10.52
2023-01-05T13:02:15.834Z,10.41
2023-01-05T13:07:23.509Z,10.36
2023-01-05T13:12:25.685Z,10.36
2023-01-05T13:17:41.899Z,10.41
2023-01-05T13:22:44.936Z,10.46
2023-01-05T13:27:46.798Z,10.46
2023-01-05T13:33:31.885Z,10.49
2023-01-05T13:38:55.435Z,10.49
2023-01-05T13:44:15.710Z,10.45
2023-01-05T13:49:49.745Z,10.43
2023-01-05T13:55:02.463Z,10.40
2023-01-05T14:00:12.159Z,10.35
2023-01-05T14:05:30.537Z,10.36
2023-01-05T14:10:34.235Z,10.32
2023-01-05T14:15:41.463Z,10.28
2023-01-05T14:20:52.111Z,10.24
2023-01-05T14:26:04.533Z,10.18
2023-01-05T14:31:16.050Z,10.12
2023-01-05T14:36:38.930Z,10.03
2023-01-05T14:41:41.031Z,9.96
2023-01-05T14:46:49.430Z,9.93
2023-01-05T14:52:00.408Z,9.91
2023-01-05T14:57:26.551Z,9.91
2023-01-05T15:02:34.196Z,9.85
2023-01-05T15:13:24.172Z,9.78
2023-01-05T15:18:26.008Z,9.73
2023-01-05T15:24:09.740Z,9.66
2023-01-05T15:29:36.505Z,9.59
2023-01-05T15:34:50.708Z,9.53
2023-01-05T15:39:57.611Z,9.49
2023-01-05T15:44:59.746Z,9.41
2023-01-05T15:50:02.384Z,9.35
2023-01-05T15:55:25.226Z,9.30
2023-01-05T16:00:30.915Z,9.28
2023-01-05T16:05:35.883Z,9.28
2023-01-05T16:10:42.238Z,9.25
2023-01-05T16:15:49.730Z,9.24
2023-01-05T16:20:54.676Z,9.23
2023-01-05T16:25:58.822Z,9.19
2023-01-05T16:31:00.766Z,9.18
2023-01-05T16:36:18.932Z,9.19
2023-01-05T16:41:26.658Z,9.21
2023-01-05T16:46:40.989Z,9.21
2023-01-05T16:51:43.070Z,9.20
2023-01-05T16:57:01.650Z,9.17
2023-01-05T17:02:03.688Z,9.15
2023-01-05T17:07:05.465Z,9.13
2023-01-05T17:12:07.859Z,9.12
2023-01-05T17:17:11.907Z,9.10
2023-01-05T17:22:13.706Z,9.07
2023-01-05T17:27:15.706Z,9.03
2023-01-05T17:32:17.540Z,9.03
2023-01-05T17:37:19.471Z,9.02
2023-01-05T17:42:39.911Z,9.02
2023-01-05T17:47:41.983Z,9.04
2023-01-05T17:52:43.939Z,9.04
2023-01-05T17:57:45.908Z,9.03
2023-01-05T18:02:49.464Z,9.02
2023-01-05T18:07:51.439Z,8.98
2023-01-05T18:12:53.338Z,8.96
2023-01-05T18:18:01.653Z,8.97
2023-01-05T18:23:03.491Z,8.94
2023-01-05T18:28:06.093Z,8.94
2023-01-05T18:33:08.026Z,8.91
2023-01-05T18:38:09.811Z,8.91
2023-01-05T18:43:11.555Z,8.87
2023-01-05T18:48:13.389Z,8.87
2023-01-05T18:53:20.777Z,8.82
2023-01-05T18:58:22.702Z,8.81
2023-01-05T19:03:24.574Z,8.78
2023-01-05T19:08:26.383Z,8.74
2023-01-05T19:13:28.321Z,8.72
2023-01-05T19:18:30.190Z,8.72
2023-01-05T19:23:32.045Z,8.70
2023-01-05T19:28:39.253Z,8.69
2023-01-05T19:33:42.259Z,8.69
2023-01-05T19:38:46.042Z,8.66
2023-01-05T19:43:49.819Z,8.65
2023-01-05T19:48:51.797Z,8.65
2023-01-05T19:53:55.676Z,8.63
2023-01-05T19:59:00.126Z,8.60
2023-01-05T20:04:02.493Z,8.59
2023-01-05T20:09:09.549Z,8.57
2023-01-05T20:14:17.514Z,8.56
2023-01-05T20:19:19.976Z,8.61
2023-01-05T20:24:27.974Z,8.60
2023-01-05T20:29:31.296Z,8.63
2023-01-05T20:34:36.400Z,8.62
2023-01-05T20:39:40.014Z,8.60
2023-01-05T20:44:45.232Z,8.59
2023-01-05T20:49:47.482Z,8.59
2023-01-05T20:54:49.830Z,8.58
2023-01-05T20:59:51.747Z,8.56
2023-01-05T21:04:53.968Z,8.54
2023-01-05T21:09:55.855Z,8.50
2023-01-05T21:14:59.213Z,8.49
2023-01-05T21:20:02.790Z,8.49
2023-01-05T21:25:04.807Z,8.47
2023-01-05T21:30:07.385Z,8.47
2023-01-05T21:35:09.613Z,8.49
2023-01-05T21:40:11.762Z,8.49
2023-01-05T21:45:13.706Z,8.47
2023-01-05T21:50:35.774Z,8.46
2023-01-05T21:55:56.496Z,8.45
2023-01-05T22:00:59.774Z,8.46
2023-01-05T22:06:01.804Z,8.46
2023-01-05T22:11:05.231Z,8.46
2023-01-05T22:16:07.766Z,8.48
2023-01-05T22:21:11.013Z,8.47
2023-01-05T22:26:15.266Z,8.46
2023-01-05T22:31:20.218Z,8.44
2023-01-05T22:36:23.597Z,8.42
2023-01-05T22:41:29.920Z,8.41
2023-01-05T22:46:32.381Z,8.43
2023-01-05T22:51:37.007Z,8.42
2023-01-05T22:56:38.786Z,8.42
2023-01-05T23:01:45.170Z,8.42
2023-01-05T23:06:47.052Z,8.43
2023-01-05T23:11:48.883Z,8.43
2023-01-05T23:16:50.893Z,8.41
2023-01-05T23:21:52.818Z,8.37
2023-01-05T23:26:54.639Z,8.34
2023-01-05T23:31:56.453Z,8.33
2023-01-05T23:36:58.252Z,8.32
2023-01-05T23:42:00.063Z,8.31
2023-01-05T23:47:01.879Z,8.29
2023-01-05T23:52:03.785Z,8.31
2023-01-05T23:57:05.568Z,8.34
